sensor_id;sensor_type;location;lat;lon;timestamp;pressure;altitude;pressure_sealevel;temperature;humidity
6032;BME280;3044;43.232;27.972;2023-02-15T00:00:36;45199.50;;;-143.84;61.60
6032;BME280;3044;43.232;27.972;2023-02-15T00:03:04;45209.03;;;-143.84;61.54
6032;BME280;3044;43.232;27.972;2023-02-15T00:05:32;45201.41;;;-143.84;61.21
6032;BME280;3044;43.232;27.972;2023-02-15T00:07:59;45197.59;;;-143.84;61.15
6032;BME280;3044;43.232;27.972;2023-02-15T00:10:26;45191.88;;;-143.84;61.43
6032;BME280;3044;43.232;27.972;2023-02-15T00:12:53;45169.03;;;-143.84;61.20
6032;BME280;3044;43.232;27.972;2023-02-15T00:15:20;45172.84;;;-143.84;61.23
6032;BME280;3044;43.232;27.972;2023-02-15T00:17:47;45176.66;;;-143.84;61.54
6032;BME280;3044;43.232;27.972;2023-02-15T00:20:16;45197.59;;;-143.84;61.65
6032;BME280;3044;43.232;27.972;2023-02-15T00:22:43;45220.44;;;-143.84;61.99
6032;BME280;3044;43.232;27.972;2023-02-15T00:25:11;45170.94;;;-143.84;62.61
6032;BME280;3044;43.232;27.972;2023-02-15T00:27:38;45199.50;;;-143.84;62.77
6032;BME280;3044;43.232;27.972;2023-02-15T00:30:06;45193.78;;;-143.84;63.11
6032;BME280;3044;43.232;27.972;2023-02-15T00:32:33;45163.31;;;-143.84;63.41
6032;BME280;3044;43.232;27.972;2023-02-15T00:35:00;45207.13;;;-143.84;63.89
6032;BME280;3044;43.232;27.972;2023-02-15T00:37:29;45170.94;;;-143.84;63.88
6032;BME280;3044;43.232;27.972;2023-02-15T00:39:56;45191.88;;;-143.84;64.07
6032;BME280;3044;43.232;27.972;2023-02-15T00:42:23;45233.78;;;-143.84;64.53
6032;BME280;3044;43.232;27.972;2023-02-15T00:44:51;45214.72;;;-143.84;64.36
6032;BME280;3044;43.232;27.972;2023-02-15T00:47:18;45207.13;;;-143.84;64.35
6032;BME280;3044;43.232;27.972;2023-02-15T00:49:45;45176.66;;;-143.84;64.26
6032;BME280;3044;43.232;27.972;2023-02-15T00:52:12;45193.78;;;-143.84;64.55
6032;BME280;3044;43.232;27.972;2023-02-15T00:54:40;45212.84;;;-143.84;64.76
6032;BME280;3044;43.232;27.972;2023-02-15T00:57:07;45207.13;;;-143.84;65.05
6032;BME280;3044;43.232;27.972;2023-02-15T00:59:35;45193.78;;;-143.84;65.13
6032;BME280;3044;43.232;27.972;2023-02-15T01:02:02;45199.50;;;-143.84;65.18
6032;BME280;3044;43.232;27.972;2023-02-15T01:04:29;45172.84;;;-143.84;65.50
6032;BME280;3044;43.232;27.972;2023-02-15T01:06:56;45189.97;;;-143.84;65.34
6032;BME280;3044;43.232;27.972;2023-02-15T01:09:23;45197.59;;;-143.84;65.87
6032;BME280;3044;43.232;27.972;2023-02-15T01:11:52;45188.06;;;-143.84;66.07
6032;BME280;3044;43.232;27.972;2023-02-15T01:14:19;45201.41;;;-143.84;66.16
6032;BME280;3044;43.232;27.972;2023-02-15T01:16:46;45216.63;;;-143.84;66.35
6032;BME280;3044;43.232;27.972;2023-02-15T01:19:14;45191.88;;;-143.84;66.11
6032;BME280;3044;43.232;27.972;2023-02-15T01:21:41;45191.88;;;-143.84;66.56
6032;BME280;3044;43.232;27.972;2023-02-15T01:24:11;45209.03;;;-143.84;67.03
6032;BME280;3044;43.232;27.972;2023-02-15T01:26:38;45216.63;;;-143.84;66.71
6032;BME280;3044;43.232;27.972;2023-02-15T01:29:07;45207.13;;;-143.84;66.83
6032;BME280;3044;43.232;27.972;2023-02-15T01:31:34;45203.31;;;-143.84;67.27
6032;BME280;3044;43.232;27.972;2023-02-15T01:34:04;45186.16;;;-143.84;66.94
6032;BME280;3044;43.232;27.972;2023-02-15T01:36:33;45212.84;;;-143.84;67.57
6032;BME280;3044;43.232;27.972;2023-02-15T01:39:00;45176.66;;;-143.84;67.85
6032;BME280;3044;43.232;27.972;2023-02-15T01:41:28;45199.50;;;-143.84;68.13
6032;BME280;3044;43.232;27.972;2023-02-15T01:43:57;45201.41;;;-143.84;68.32
6032;BME280;3044;43.232;27.972;2023-02-15T01:46:28;45178.56;;;-143.84;68.72
6032;BME280;3044;43.232;27.972;2023-02-15T01:49:03;45189.97;;;-143.84;68.32
6032;BME280;3044;43.232;27.972;2023-02-15T01:51:34;45180.47;;;-143.84;68.61
6032;BME280;3044;43.232;27.972;2023-02-15T01:54:09;45226.16;;;-143.84;69.06
6032;BME280;3044;43.232;27.972;2023-02-15T01:56:38;45205.22;;;-143.84;69.25
6032;BME280;3044;43.232;27.972;2023-02-15T01:59:09;45165.22;;;-143.84;69.23
6032;BME280;3044;43.232;27.972;2023-02-15T02:01:39;45193.78;;;-143.84;69.43
6032;BME280;3044;43.232;27.972;2023-02-15T02:04:12;45180.47;;;-143.84;69.13
6032;BME280;3044;43.232;27.972;2023-02-15T02:06:42;45209.03;;;-143.84;69.48
6032;BME280;3044;43.232;27.972;2023-02-15T02:09:10;45201.41;;;-143.84;69.64
6032;BME280;3044;43.232;27.972;2023-02-15T02:11:39;45201.41;;;-143.84;69.71
6032;BME280;3044;43.232;27.972;2023-02-15T02:14:07;45203.31;;;-143.84;70.06
6032;BME280;3044;43.232;27.972;2023-02-15T02:16:40;45205.22;;;-143.84;69.92
6032;BME280;3044;43.232;27.972;2023-02-15T02:25:16;45197.59;;;-143.84;70.53
6032;BME280;3044;43.232;27.972;2023-02-15T02:27:50;45218.53;;;-143.84;70.79
6032;BME280;3044;43.232;27.972;2023-02-15T02:30:55;45170.94;;;-143.84;70.63
6032;BME280;3044;43.232;27.972;2023-02-15T02:33:47;45188.06;;;-143.84;70.97
6032;BME280;3044;43.232;27.972;2023-02-15T02:36:23;45214.72;;;-143.84;70.61
6032;BME280;3044;43.232;27.972;2023-02-15T02:39:02;45180.47;;;-143.84;70.71
6032;BME280;3044;43.232;27.972;2023-02-15T02:41:38;45214.72;;;-143.84;70.89
6032;BME280;3044;43.232;27.972;2023-02-15T02:44:13;45189.97;;;-143.84;71.36
6032;BME280;3044;43.232;27.972;2023-02-15T02:46:48;45184.25;;;-143.84;71.24
6032;BME280;3044;43.232;27.972;2023-02-15T02:49:30;45205.22;;;-143.84;71.43
6032;BME280;3044;43.232;27.972;2023-02-15T02:51:59;45209.03;;;-143.84;71.53
6032;BME280;3044;43.232;27.972;2023-02-15T02:54:28;45170.94;;;-143.84;71.43
6032;BME280;3044;43.232;27.972;2023-02-15T02:56:56;45178.56;;;-143.84;71.31
6032;BME280;3044;43.232;27.972;2023-02-15T02:59:27;45205.22;;;-143.84;71.49
6032;BME280;3044;43.232;27.972;2023-02-15T03:02:01;45214.72;;;-143.84;71.28
6032;BME280;3044;43.232;27.972;2023-02-15T03:04:36;45195.69;;;-143.84;71.81
6032;BME280;3044;43.232;27.972;2023-02-15T03:07:07;45172.84;;;-143.84;71.86
6032;BME280;3044;43.232;27.972;2023-02-15T03:09:38;45199.50;;;-143.84;71.65
6032;BME280;3044;43.232;27.972;2023-02-15T03:12:09;45189.97;;;-143.84;71.91
6032;BME280;3044;43.232;27.972;2023-02-15T03:14:38;45191.88;;;-143.84;72.63
6032;BME280;3044;43.232;27.972;2023-02-15T03:17:07;45189.97;;;-143.84;72.20
6032;BME280;3044;43.232;27.972;2023-02-15T03:19:38;45169.03;;;-143.84;72.73
6032;BME280;3044;43.232;27.972;2023-02-15T03:22:10;45222.34;;;-143.84;72.74
6032;BME280;3044;43.232;27.972;2023-02-15T03:24:43;45186.16;;;-143.84;73.30
6032;BME280;3044;43.232;27.972;2023-02-15T03:27:15;45205.22;;;-143.84;73.38
6032;BME280;3044;43.232;27.972;2023-02-15T03:29:46;45193.78;;;-143.84;73.73
6032;BME280;3044;43.232;27.972;2023-02-15T03:32:16;45184.25;;;-143.84;73.40
6032;BME280;3044;43.232;27.972;2023-02-15T03:34:45;45184.25;;;-143.84;73.73
6032;BME280;3044;43.232;27.972;2023-02-15T03:37:17;45229.97;;;-143.84;73.76
6032;BME280;3044;43.232;27.972;2023-02-15T03:39:51;45203.31;;;-143.84;73.76
6032;BME280;3044;43.232;27.972;2023-02-15T03:42:24;45228.06;;;-143.84;73.99
6032;BME280;3044;43.232;27.972;2023-02-15T03:44:57;45203.31;;;-143.84;73.70
6032;BME280;3044;43.232;27.972;2023-02-15T03:47:27;45233.78;;;-143.84;73.81
6032;BME280;3044;43.232;27.972;2023-02-15T03:50:01;45201.41;;;-143.84;73.67
6032;BME280;3044;43.232;27.972;2023-02-15T03:52:50;45163.31;;;-143.84;73.57
6032;BME280;3044;43.232;27.972;2023-02-15T03:55:18;45193.78;;;-143.84;73.29
6032;BME280;3044;43.232;27.972;2023-02-15T03:57:45;45172.84;;;-143.84;73.53
6032;BME280;3044;43.232;27.972;2023-02-15T04:00:34;45195.69;;;-143.84;73.18
6032;BME280;3044;43.232;27.972;2023-02-15T04:03:23;45203.31;;;-143.84;73.73
6032;BME280;3044;43.232;27.972;2023-02-15T04:05:55;45186.16;;;-143.84;73.76
6032;BME280;3044;43.232;27.972;2023-02-15T04:08:22;45184.25;;;-143.84;74.01
6032;BME280;3044;43.232;27.972;2023-02-15T04:11:09;45214.72;;;-143.84;74.63
6032;BME280;3044;43.232;27.972;2023-02-15T04:13:35;45199.50;;;-143.84;74.50
6032;BME280;3044;43.232;27.972;2023-02-15T04:16:03;45180.47;;;-143.84;74.49
6032;BME280;3044;43.232;27.972;2023-02-15T04:18:30;45169.03;;;-143.84;74.22
6032;BME280;3044;43.232;27.972;2023-02-15T04:21:16;45172.84;;;-143.84;74.45
6032;BME280;3044;43.232;27.972;2023-02-15T04:24:01;45203.31;;;-143.84;74.74
6032;BME280;3044;43.232;27.972;2023-02-15T04:26:45;45209.03;;;-143.84;74.17
6032;BME280;3044;43.232;27.972;2023-02-15T04:29:18;45207.13;;;-143.84;74.20
6032;BME280;3044;43.232;27.972;2023-02-15T04:31:46;45205.22;;;-143.84;74.26
6032;BME280;3044;43.232;27.972;2023-02-15T04:34:13;45220.44;;;-143.84;74.27
6032;BME280;3044;43.232;27.972;2023-02-15T04:36:42;45184.25;;;-143.84;74.20
6032;BME280;3044;43.232;27.972;2023-02-15T04:39:12;45174.75;;;-143.84;74.01
6032;BME280;3044;43.232;27.972;2023-02-15T04:41:40;45178.56;;;-143.84;74.41
6032;BME280;3044;43.232;27.972;2023-02-15T04:44:07;45188.06;;;-143.84;75.07
6032;BME280;3044;43.232;27.972;2023-02-15T04:46:34;45205.22;;;-143.84;74.51
6032;BME280;3044;43.232;27.972;2023-02-15T04:49:01;45197.59;;;-143.84;75.18
6032;BME280;3044;43.232;27.972;2023-02-15T04:51:29;45172.84;;;-143.84;75.08
6032;BME280;3044;43.232;27.972;2023-02-15T04:53:57;45186.16;;;-143.84;74.95
6032;BME280;3044;43.232;27.972;2023-02-15T04:56:25;45210.94;;;-143.84;74.92
6032;BME280;3044;43.232;27.972;2023-02-15T04:58:52;45201.41;;;-143.84;75.03
6032;BME280;3044;43.232;27.972;2023-02-15T05:01:19;45180.47;;;-143.84;74.42
6032;BME280;3044;43.232;27.972;2023-02-15T05:03:46;45205.22;;;-143.84;74.16
6032;BME280;3044;43.232;27.972;2023-02-15T05:06:13;45193.78;;;-143.84;74.75
6032;BME280;3044;43.232;27.972;2023-02-15T05:08:40;45209.03;;;-143.84;74.93
6032;BME280;3044;43.232;27.972;2023-02-15T05:11:09;45205.22;;;-143.84;74.25
6032;BME280;3044;43.232;27.972;2023-02-15T05:13:36;45193.78;;;-143.84;74.36
6032;BME280;3044;43.232;27.972;2023-02-15T05:16:03;45214.72;;;-143.84;74.98
6032;BME280;3044;43.232;27.972;2023-02-15T05:18:30;45174.75;;;-143.84;74.74
6032;BME280;3044;43.232;27.972;2023-02-15T05:20:57;45193.78;;;-143.84;74.92
6032;BME280;3044;43.232;27.972;2023-02-15T05:23:25;45193.78;;;-143.84;74.92
6032;BME280;3044;43.232;27.972;2023-02-15T05:25:52;45197.59;;;-143.84;74.80
6032;BME280;3044;43.232;27.972;2023-02-15T05:28:38;45209.03;;;-143.84;74.91
6032;BME280;3044;43.232;27.972;2023-02-15T05:31:07;45201.41;;;-143.84;74.71
6032;BME280;3044;43.232;27.972;2023-02-15T05:33:34;45193.78;;;-143.84;74.68
6032;BME280;3044;43.232;27.972;2023-02-15T05:36:02;45174.75;;;-143.84;75.09
6032;BME280;3044;43.232;27.972;2023-02-15T05:38:29;45224.25;;;-143.84;75.15
6032;BME280;3044;43.232;27.972;2023-02-15T05:40:57;45170.94;;;-143.84;75.09
6032;BME280;3044;43.232;27.972;2023-02-15T05:43:25;45203.31;;;-143.84;75.24
6032;BME280;3044;43.232;27.972;2023-02-15T05:45:54;45212.84;;;-143.84;75.54
6032;BME280;3044;43.232;27.972;2023-02-15T05:48:25;45199.50;;;-143.84;75.17
6032;BME280;3044;43.232;27.972;2023-02-15T05:51:00;45189.97;;;-143.84;75.31
6032;BME280;3044;43.232;27.972;2023-02-15T05:53:28;45188.06;;;-143.84;74.84
6032;BME280;3044;43.232;27.972;2023-02-15T05:55:55;45193.78;;;-143.84;75.51
6032;BME280;3044;43.232;27.972;2023-02-15T05:58:25;45174.75;;;-143.84;75.11
6032;BME280;3044;43.232;27.972;2023-02-15T06:00:54;45191.88;;;-143.84;74.65
6032;BME280;3044;43.232;27.972;2023-02-15T06:03:21;45209.03;;;-143.84;74.64
6032;BME280;3044;43.232;27.972;2023-02-15T06:05:49;45209.03;;;-143.84;74.30
6032;BME280;3044;43.232;27.972;2023-02-15T06:08:16;45226.16;;;-143.84;73.76
6032;BME280;3044;43.232;27.972;2023-02-15T06:10:43;45203.31;;;-143.84;73.64
6032;BME280;3044;43.232;27.972;2023-02-15T06:13:11;45178.56;;;-143.84;72.89
6032;BME280;3044;43.232;27.972;2023-02-15T06:15:39;45184.25;;;-143.84;72.88
6032;BME280;3044;43.232;27.972;2023-02-15T06:18:07;45193.78;;;-143.84;72.64
6032;BME280;3044;43.232;27.972;2023-02-15T06:20:34;45193.78;;;-143.84;72.38
6032;BME280;3044;43.232;27.972;2023-02-15T06:23:01;45176.66;;;-143.84;71.76
6032;BME280;3044;43.232;27.972;2023-02-15T06:25:29;45195.69;;;-143.84;70.78
6032;BME280;3044;43.232;27.972;2023-02-15T06:27:56;45172.84;;;-143.84;69.99
6032;BME280;3044;43.232;27.972;2023-02-15T06:30:23;45188.06;;;-143.84;69.37
6032;BME280;3044;43.232;27.972;2023-02-15T06:32:50;45176.66;;;-143.84;68.86
6032;BME280;3044;43.232;27.972;2023-02-15T06:35:18;45172.84;;;-143.84;67.73
6032;BME280;3044;43.232;27.972;2023-02-15T06:37:47;45207.13;;;-143.84;65.95
6032;BME280;3044;43.232;27.972;2023-02-15T06:40:15;45172.84;;;-143.84;nan
6032;BME280;3044;43.232;27.972;2023-02-15T06:42:42;45205.22;;;-143.84;64.61
6032;BME280;3044;43.232;27.972;2023-02-15T06:45:10;45150.00;;;-143.84;63.37
6032;BME280;3044;43.232;27.972;2023-02-15T06:47:37;45167.13;;;-143.84;62.66
6032;BME280;3044;43.232;27.972;2023-02-15T06:50:06;45178.56;;;-143.84;62.33
6032;BME280;3044;43.232;27.972;2023-02-15T06:52:35;45195.69;;;-143.84;60.49
6032;BME280;3044;43.232;27.972;2023-02-15T06:55:02;45148.09;;;-143.84;59.74
6032;BME280;3044;43.232;27.972;2023-02-15T06:57:29;45163.31;;;-143.84;59.44
6032;BME280;3044;43.232;27.972;2023-02-15T06:59:57;45178.56;;;-143.84;58.50
6032;BME280;3044;43.232;27.972;2023-02-15T07:02:25;45146.19;;;-143.84;58.55
6032;BME280;3044;43.232;27.972;2023-02-15T07:04:52;45174.75;;;-143.84;57.56
6032;BME280;3044;43.232;27.972;2023-02-15T07:07:19;45165.22;;;-143.84;57.58
6032;BME280;3044;43.232;27.972;2023-02-15T07:09:47;45138.56;;;-143.84;57.17
6032;BME280;3044;43.232;27.972;2023-02-15T07:12:14;45148.09;;;-143.84;56.39
6032;BME280;3044;43.232;27.972;2023-02-15T07:14:59;45169.03;;;-143.84;54.85
6032;BME280;3044;43.232;27.972;2023-02-15T07:17:26;45148.09;;;-143.84;54.86
6032;BME280;3044;43.232;27.972;2023-02-15T07:19:54;45174.75;;;-143.84;54.38
6032;BME280;3044;43.232;27.972;2023-02-15T07:22:21;45144.28;;;-143.84;54.49
6032;BME280;3044;43.232;27.972;2023-02-15T07:24:49;45155.69;;;-143.84;54.92
6032;BME280;3044;43.232;27.972;2023-02-15T07:27:20;45167.13;;;-143.84;55.17
6032;BME280;3044;43.232;27.972;2023-02-15T07:29:47;45174.75;;;-143.84;54.24
6032;BME280;3044;43.232;27.972;2023-02-15T07:32:14;45132.84;;;-143.84;53.13
6032;BME280;3044;43.232;27.972;2023-02-15T07:34:41;45157.59;;;-143.84;53.81
6032;BME280;3044;43.232;27.972;2023-02-15T07:37:08;45180.47;;;-143.84;53.78
6032;BME280;3044;43.232;27.972;2023-02-15T07:39:35;45148.09;;;-143.84;54.66
6032;BME280;3044;43.232;27.972;2023-02-15T07:42:04;45167.13;;;-143.84;54.08
6032;BME280;3044;43.232;27.972;2023-02-15T07:44:31;45125.22;;;-143.84;53.38
6032;BME280;3044;43.232;27.972;2023-02-15T07:46:58;45151.91;;;-143.84;54.53
6032;BME280;3044;43.232;27.972;2023-02-15T07:49:25;45167.13;;;-143.84;53.89
6032;BME280;3044;43.232;27.972;2023-02-15T07:51:52;45140.47;;;-143.84;54.14
6032;BME280;3044;43.232;27.972;2023-02-15T07:54:20;45186.16;;;-143.84;53.70
6032;BME280;3044;43.232;27.972;2023-02-15T07:56:47;45165.22;;;-143.84;54.37
6032;BME280;3044;43.232;27.972;2023-02-15T07:59:15;45148.09;;;-143.84;54.25
6032;BME280;3044;43.232;27.972;2023-02-15T08:01:42;45165.22;;;-143.84;52.88
6032;BME280;3044;43.232;27.972;2023-02-15T08:04:10;45155.69;;;-143.84;53.13
6032;BME280;3044;43.232;27.972;2023-02-15T08:06:38;45205.22;;;-143.84;51.62
6032;BME280;3044;43.232;27.972;2023-02-15T08:09:06;45140.47;;;-143.84;51.39
6032;BME280;3044;43.232;27.972;2023-02-15T08:11:35;45167.13;;;-143.84;49.67
6032;BME280;3044;43.232;27.972;2023-02-15T08:14:08;45155.69;;;-143.84;47.98
6032;BME280;3044;43.232;27.972;2023-02-15T08:16:38;45159.50;;;-143.84;48.51
6032;BME280;3044;43.232;27.972;2023-02-15T08:19:08;45140.47;;;-143.84;48.63
6032;BME280;3044;43.232;27.972;2023-02-15T08:21:36;45157.59;;;-143.84;49.20
6032;BME280;3044;43.232;27.972;2023-02-15T08:24:04;45136.66;;;-143.84;48.64
6032;BME280;3044;43.232;27.972;2023-02-15T08:26:32;45146.19;;;-143.84;47.54
6032;BME280;3044;43.232;27.972;2023-02-15T08:29:01;45144.28;;;-143.84;47.65
6032;BME280;3044;43.232;27.972;2023-02-15T08:31:29;45146.19;;;-143.84;48.13
6032;BME280;3044;43.232;27.972;2023-02-15T08:33:57;45165.22;;;-143.84;47.62
6032;BME280;3044;43.232;27.972;2023-02-15T08:36:26;45144.28;;;-143.84;48.77
6032;BME280;3044;43.232;27.972;2023-02-15T08:38:54;45148.09;;;-143.84;48.75
6032;BME280;3044;43.232;27.972;2023-02-15T08:41:23;45138.56;;;-143.84;49.08
6032;BME280;3044;43.232;27.972;2023-02-15T08:43:53;45178.56;;;-143.84;48.66
6032;BME280;3044;43.232;27.972;2023-02-15T08:46:22;45159.50;;;-143.84;48.85
6032;BME280;3044;43.232;27.972;2023-02-15T08:48:49;45148.09;;;-143.84;48.80
6032;BME280;3044;43.232;27.972;2023-02-15T08:51:19;45157.59;;;-143.84;48.10
6032;BME280;3044;43.232;27.972;2023-02-15T08:53:49;45129.03;;;-143.84;47.63
6032;BME280;3044;43.232;27.972;2023-02-15T08:56:17;45129.03;;;-143.84;47.94
6032;BME280;3044;43.232;27.972;2023-02-15T08:58:45;45151.91;;;-143.84;47.20
6032;BME280;3044;43.232;27.972;2023-02-15T09:01:14;45136.66;;;-143.84;45.83
6032;BME280;3044;43.232;27.972;2023-02-15T09:03:46;45172.84;;;-143.84;46.03
6032;BME280;3044;43.232;27.972;2023-02-15T09:06:13;45146.19;;;-143.84;45.19
6032;BME280;3044;43.232;27.972;2023-02-15T09:08:42;45148.09;;;-143.84;45.01
6032;BME280;3044;43.232;27.972;2023-02-15T09:11:11;45140.47;;;-143.84;44.15
6032;BME280;3044;43.232;27.972;2023-02-15T09:13:39;45138.56;;;-143.84;43.52
6032;BME280;3044;43.232;27.972;2023-02-15T09:16:08;45121.44;;;-143.84;43.50
6032;BME280;3044;43.232;27.972;2023-02-15T09:18:38;45125.22;;;-143.84;43.23
6032;BME280;3044;43.232;27.972;2023-02-15T09:21:07;45136.66;;;-143.84;43.27
6032;BME280;3044;43.232;27.972;2023-02-15T09:23:35;45123.34;;;-143.84;43.30
6032;BME280;3044;43.232;27.972;2023-02-15T09:26:08;45134.75;;;-143.84;42.85
6032;BME280;3044;43.232;27.972;2023-02-15T09:28:37;45142.38;;;-143.84;43.67
6032;BME280;3044;43.232;27.972;2023-02-15T09:31:06;45129.03;;;-143.84;43.62
6032;BME280;3044;43.232;27.972;2023-02-15T09:33:34;45157.59;;;-143.84;43.72
6032;BME280;3044;43.232;27.972;2023-02-15T09:36:02;45117.63;;;-143.84;43.87
6032;BME280;3044;43.232;27.972;2023-02-15T09:38:29;45132.84;;;-143.84;44.27
6032;BME280;3044;43.232;27.972;2023-02-15T09:41:05;45132.84;;;-143.84;44.79
6032;BME280;3044;43.232;27.972;2023-02-15T09:43:42;45148.09;;;-143.84;45.04
6032;BME280;3044;43.232;27.972;2023-02-15T09:46:34;45159.50;;;-143.84;44.41
6032;BME280;3044;43.232;27.972;2023-02-15T09:49:11;45150.00;;;-143.84;44.24
6032;BME280;3044;43.232;27.972;2023-02-15T09:51:56;45142.38;;;-143.84;44.55
6032;BME280;3044;43.232;27.972;2023-02-15T09:54:51;45134.75;;;-143.84;44.20
6032;BME280;3044;43.232;27.972;2023-02-15T09:57:29;45165.22;;;-143.84;44.40
6032;BME280;3044;43.232;27.972;2023-02-15T10:00:06;45140.47;;;-143.84;44.59
6032;BME280;3044;43.232;27.972;2023-02-15T10:02:48;45134.75;;;-143.84;44.23
6032;BME280;3044;43.232;27.972;2023-02-15T10:05:28;45138.56;;;-143.84;44.47
6032;BME280;3044;43.232;27.972;2023-02-15T10:08:21;45144.28;;;-143.84;42.98
6032;BME280;3044;43.232;27.972;2023-02-15T10:10:57;45138.56;;;-143.84;43.39
6032;BME280;3044;43.232;27.972;2023-02-15T10:13:54;45150.00;;;-143.84;43.28
6032;BME280;3044;43.232;27.972;2023-02-15T10:16:33;45150.00;;;-143.84;43.87
6032;BME280;3044;43.232;27.972;2023-02-15T10:19:08;45113.81;;;-143.84;44.44
6032;BME280;3044;43.232;27.972;2023-02-15T10:21:49;45159.50;;;-143.84;43.93
6032;BME280;3044;43.232;27.972;2023-02-15T10:24:41;45165.22;;;-143.84;43.86
6032;BME280;3044;43.232;27.972;2023-02-15T10:27:13;45148.09;;;-143.84;42.70
6032;BME280;3044;43.232;27.972;2023-02-15T10:29:50;45146.19;;;-143.84;42.56
6032;BME280;3044;43.232;27.972;2023-02-15T10:32:24;45142.38;;;-143.84;42.85
6032;BME280;3044;43.232;27.972;2023-02-15T10:35:00;45130.94;;;-143.84;42.71
6032;BME280;3044;43.232;27.972;2023-02-15T10:37:53;45151.91;;;-143.84;42.68
6032;BME280;3044;43.232;27.972;2023-02-15T10:40:30;45134.75;;;-143.84;42.71
6032;BME280;3044;43.232;27.972;2023-02-15T10:43:11;45136.66;;;-143.84;42.18
6032;BME280;3044;43.232;27.972;2023-02-15T10:45:49;45130.94;;;-143.84;41.05
6032;BME280;3044;43.232;27.972;2023-02-15T10:51:34;45146.19;;;-143.84;41.85
6032;BME280;3044;43.232;27.972;2023-02-15T10:54:21;45144.28;;;-143.84;41.92
6032;BME280;3044;43.232;27.972;2023-02-15T10:57:01;45161.41;;;-143.84;42.12
6032;BME280;3044;43.232;27.972;2023-02-15T10:59:43;45125.22;;;-143.84;42.48
6032;BME280;3044;43.232;27.972;2023-02-15T11:02:23;45134.75;;;-143.84;42.73
6032;BME280;3044;43.232;27.972;2023-02-15T11:04:59;45153.81;;;-143.84;43.23
6032;BME280;3044;43.232;27.972;2023-02-15T11:07:34;45167.13;;;-143.84;43.21
6032;BME280;3044;43.232;27.972;2023-02-15T11:10:18;45151.91;;;-143.84;43.32
6032;BME280;3044;43.232;27.972;2023-02-15T11:12:49;45142.38;;;-143.84;44.16
6032;BME280;3044;43.232;27.972;2023-02-15T11:15:22;45148.09;;;-143.84;44.19
6032;BME280;3044;43.232;27.972;2023-02-15T11:17:55;45138.56;;;-143.84;43.73
6032;BME280;3044;43.232;27.972;2023-02-15T11:20:30;45144.28;;;-143.84;44.34
6032;BME280;3044;43.232;27.972;2023-02-15T11:23:00;45130.94;;;-143.84;42.73
6032;BME280;3044;43.232;27.972;2023-02-15T11:25:30;45127.13;;;-143.84;41.39
6032;BME280;3044;43.232;27.972;2023-02-15T11:27:58;45123.34;;;-143.84;40.97
6032;BME280;3044;43.232;27.972;2023-02-15T11:30:29;45170.94;;;-143.84;41.46
6032;BME280;3044;43.232;27.972;2023-02-15T11:33:01;45142.38;;;-143.84;41.57
6032;BME280;3044;43.232;27.972;2023-02-15T11:35:35;45140.47;;;-143.84;41.43
6032;BME280;3044;43.232;27.972;2023-02-15T11:38:10;45134.75;;;-143.84;41.51
6032;BME280;3044;43.232;27.972;2023-02-15T11:40:44;45134.75;;;-143.84;41.92
6032;BME280;3044;43.232;27.972;2023-02-15T11:43:16;45132.84;;;-143.84;41.63
6032;BME280;3044;43.232;27.972;2023-02-15T11:45:46;45146.19;;;-143.84;41.72
6032;BME280;3044;43.232;27.972;2023-02-15T11:48:14;45159.50;;;-143.84;42.35
6032;BME280;3044;43.232;27.972;2023-02-15T11:50:45;45136.66;;;-143.84;41.90
6032;BME280;3044;43.232;27.972;2023-02-15T11:53:13;45144.28;;;-143.84;41.93
6032;BME280;3044;43.232;27.972;2023-02-15T11:55:43;45163.31;;;-143.84;41.96
6032;BME280;3044;43.232;27.972;2023-02-15T11:58:20;45148.09;;;-143.84;43.03
6032;BME280;3044;43.232;27.972;2023-02-15T12:00:50;45148.09;;;-143.84;42.33
6032;BME280;3044;43.232;27.972;2023-02-15T12:03:24;45144.28;;;-143.84;42.39
6032;BME280;3044;43.232;27.972;2023-02-15T12:05:57;45123.34;;;-143.84;41.92
6032;BME280;3044;43.232;27.972;2023-02-15T12:08:34;45169.03;;;-143.84;41.77
6032;BME280;3044;43.232;27.972;2023-02-15T12:11:07;45132.84;;;-143.84;41.33
6032;BME280;3044;43.232;27.972;2023-02-15T12:13:54;45129.03;;;-143.84;40.70
6032;BME280;3044;43.232;27.972;2023-02-15T12:16:22;45146.19;;;-143.84;40.19
6032;BME280;3044;43.232;27.972;2023-02-15T12:18:50;45153.81;;;-143.84;40.78
6032;BME280;3044;43.232;27.972;2023-02-15T12:21:27;45102.38;;;-143.84;39.92
6032;BME280;3044;43.232;27.972;2023-02-15T12:23:57;45151.91;;;-143.84;38.95
6032;BME280;3044;43.232;27.972;2023-02-15T12:26:27;45132.84;;;-143.84;39.13
6032;BME280;3044;43.232;27.972;2023-02-15T12:28:56;45144.28;;;-143.84;39.84
6032;BME280;3044;43.232;27.972;2023-02-15T12:31:30;45115.72;;;-143.84;40.23
6032;BME280;3044;43.232;27.972;2023-02-15T12:34:01;45130.94;;;-143.84;40.12
6032;BME280;3044;43.232;27.972;2023-02-15T12:36:33;45140.47;;;-143.84;40.09
6032;BME280;3044;43.232;27.972;2023-02-15T12:39:21;45138.56;;;-143.84;40.40
6032;BME280;3044;43.232;27.972;2023-02-15T12:42:01;45150.00;;;-143.84;40.81
6032;BME280;3044;43.232;27.972;2023-02-15T12:44:31;45127.13;;;-143.84;40.71
6032;BME280;3044;43.232;27.972;2023-02-15T12:47:00;45153.81;;;-143.84;41.53
6032;BME280;3044;43.232;27.972;2023-02-15T12:49:28;45129.03;;;-143.84;41.14
6032;BME280;3044;43.232;27.972;2023-02-15T12:51:58;45132.84;;;-143.84;40.81
6032;BME280;3044;43.232;27.972;2023-02-15T12:54:34;45148.09;;;-143.84;41.04
6032;BME280;3044;43.232;27.972;2023-02-15T12:57:22;45132.84;;;-143.84;41.27
6032;BME280;3044;43.232;27.972;2023-02-15T12:59:52;45138.56;;;-143.84;41.11
6032;BME280;3044;43.232;27.972;2023-02-15T13:02:27;45144.28;;;-143.84;40.74
6032;BME280;3044;43.232;27.972;2023-02-15T13:04:56;45142.38;;;-143.84;41.09
6032;BME280;3044;43.232;27.972;2023-02-15T13:07:30;45174.75;;;-143.84;40.91
6032;BME280;3044;43.232;27.972;2023-02-15T13:09:58;45130.94;;;-143.84;40.88
6032;BME280;3044;43.232;27.972;2023-02-15T13:12:28;45134.75;;;-143.84;41.24
6032;BME280;3044;43.232;27.972;2023-02-15T13:14:56;45151.91;;;-143.84;41.36
6032;BME280;3044;43.232;27.972;2023-02-15T13:17:26;45144.28;;;-143.84;41.34
6032;BME280;3044;43.232;27.972;2023-02-15T13:19:58;45121.44;;;-143.84;40.34